Forside
METAR-TAF:

METAR-TAF

Lufthavne :

Knoxville Municipal Airport

Knoxville, Iowa, USA

Breddekreds: 41-18N, længdekreds: 093-07W, højde: 283 m

Aktuelle vejr

Denne rapport blev lavet for 5 minutter siden, kl. 06:55 UTC
Vind 10 kt fra sydvest
Temperatur 5°C
Fugtighed 65%
Tryk 1016 hPa
Sigt: 16.1 km
skyfri

METAR: KOXV 290655Z AUTO 22010KT 10SM CLR 05/M01 A2999 RMK AO2

Tid: 01:00 (07:00 UTC)


TAF: fraværende

Vejrobservationer og prognoser fra mere end 4000 lufthavne (METAR og TAF).

De gule og røde prikker repræsenterer de meteorologiske stationer.

Flyt musen over at se navnet på stationen.

Så klik over at se vejr observationer og prognoser.

At skifte det kort: Klik på de grønne knapper med et sort kors for at zoome ind; på den grønne knap med en bindestreg for at zoome ud; eller på de grønne pile for tilstødende kort.


METAR-TAF: